createdAt,value
2023-01-30T00:00:09.030Z,991.398
2023-01-30T00:01:08.698Z,991.336
2023-01-30T00:02:08.406Z,991.216
2023-01-30T00:03:08.331Z,991.271
2023-01-30T00:04:08.943Z,991.240
2023-01-30T00:05:08.685Z,991.067
2023-01-30T00:06:08.386Z,991.172
2023-01-30T00:07:08.275Z,991.200
2023-01-30T00:08:08.955Z,991.089
2023-01-30T00:09:08.635Z,991.066
2023-01-30T00:10:08.227Z,991.074
2023-01-30T00:11:08.225Z,991.033
2023-01-30T00:12:08.923Z,990.989
2023-01-30T00:13:08.616Z,990.880
2023-01-30T00:14:08.296Z,990.995
2023-01-30T00:15:08.936Z,991.032
2023-01-30T00:16:08.725Z,991.103
2023-01-30T00:17:08.711Z,991.058
2023-01-30T00:18:08.387Z,990.996
2023-01-30T00:19:08.033Z,990.930
2023-01-30T00:20:08.688Z,991.018
2023-01-30T00:21:08.294Z,991.014
2023-01-30T00:22:08.036Z,991.114
2023-01-30T00:24:12.532Z,991.035
2023-01-30T00:25:12.770Z,991.189
2023-01-30T00:26:12.241Z,991.088
2023-01-30T00:27:12.265Z,991.047
2023-01-30T00:28:12.942Z,991.207
2023-01-30T00:29:12.589Z,991.109
2023-01-30T00:31:16.078Z,991.175
2023-01-30T00:32:16.204Z,991.170
2023-01-30T00:33:16.879Z,991.312
2023-01-30T00:34:16.804Z,991.315
2023-01-30T00:35:16.588Z,991.266
2023-01-30T00:36:16.211Z,991.307
2023-01-30T00:37:16.731Z,991.208
2023-01-30T00:38:16.372Z,991.307
2023-01-30T00:39:16.028Z,991.259
2023-01-30T00:40:17.000Z,991.361
2023-01-30T00:41:16.783Z,991.453
2023-01-30T00:42:16.455Z,991.507
2023-01-30T00:43:16.052Z,991.521
2023-01-30T00:44:16.835Z,991.511
2023-01-30T00:45:16.695Z,991.491
2023-01-30T00:46:16.696Z,991.493
2023-01-30T00:47:16.351Z,991.548
2023-01-30T00:48:16.064Z,991.488
2023-01-30T00:49:16.884Z,991.680
2023-01-30T00:50:16.517Z,991.563
2023-01-30T00:51:16.242Z,991.569
2023-01-30T00:52:16.845Z,991.576
2023-01-30T00:53:16.489Z,991.667
2023-01-30T00:54:16.181Z,991.695
2023-01-30T00:55:16.995Z,991.659
2023-01-30T00:56:16.779Z,991.534
2023-01-30T00:57:16.423Z,991.637
2023-01-30T00:58:16.076Z,991.579
2023-01-30T00:59:16.745Z,991.635
2023-01-30T01:00:16.511Z,991.589
2023-01-30T01:01:16.186Z,991.525
2023-01-30T01:02:16.266Z,991.491
2023-01-30T01:03:16.309Z,991.554
2023-01-30T01:04:16.156Z,991.400
2023-01-30T01:05:16.950Z,991.484
2023-01-30T01:06:16.848Z,991.464
2023-01-30T01:07:16.563Z,991.559
2023-01-30T01:08:16.172Z,991.490
2023-01-30T01:09:16.805Z,991.519
2023-01-30T01:10:16.706Z,991.359
2023-01-30T01:11:16.349Z,991.404
2023-01-30T01:12:16.148Z,991.392
2023-01-30T01:13:16.884Z,991.333
2023-01-30T01:14:16.495Z,991.235
2023-01-30T01:15:16.308Z,991.171
2023-01-30T01:16:16.231Z,991.100
2023-01-30T01:17:16.072Z,991.179
2023-01-30T01:18:16.816Z,991.227
2023-01-30T01:19:16.511Z,991.015
2023-01-30T01:20:16.131Z,991.142
2023-01-30T01:21:18.101Z,991.222
2023-01-30T01:22:16.080Z,991.229
2023-01-30T01:23:16.835Z,991.045
2023-01-30T01:24:16.510Z,991.156
2023-01-30T01:25:16.455Z,991.176
2023-01-30T01:26:16.368Z,991.099
2023-01-30T01:27:16.225Z,991.023
2023-01-30T01:28:16.990Z,990.978
2023-01-30T01:29:16.701Z,990.996
2023-01-30T01:30:16.411Z,990.902
2023-01-30T01:31:16.227Z,990.774
2023-01-30T01:32:16.267Z,990.812
2023-01-30T01:33:16.727Z,990.834
2023-01-30T01:34:16.636Z,990.868
2023-01-30T01:35:16.812Z,990.907
2023-01-30T01:36:35.964Z,990.844
2023-01-30T01:38:21.041Z,990.830
2023-01-30T01:39:21.749Z,990.690
2023-01-30T01:40:21.576Z,990.692
2023-01-30T01:41:21.264Z,990.452
2023-01-30T01:42:21.999Z,990.507
2023-01-30T01:43:21.731Z,990.531
2023-01-30T01:44:21.384Z,990.563
2023-01-30T01:45:21.325Z,990.619
2023-01-30T01:46:21.164Z,990.486
2023-01-30T01:47:21.843Z,990.488
2023-01-30T01:48:21.561Z,990.637
2023-01-30T01:49:21.160Z,990.629
2023-01-30T01:50:21.962Z,990.521
2023-01-30T01:51:21.715Z,990.734
2023-01-30T01:52:21.474Z,990.607
2023-01-30T01:53:21.205Z,990.621
2023-01-30T01:54:22.005Z,990.613
2023-01-30T01:55:21.704Z,990.507
2023-01-30T01:56:21.652Z,990.526
2023-01-30T01:57:21.274Z,990.447
2023-01-30T01:58:21.159Z,990.501
2023-01-30T01:59:21.786Z,990.387
2023-01-30T02:00:21.450Z,990.322
2023-01-30T02:01:21.717Z,990.450
2023-01-30T02:02:21.599Z,990.525
2023-01-30T02:03:21.388Z,990.465
2023-01-30T02:04:21.060Z,990.481
2023-01-30T02:05:21.298Z,990.474
2023-01-30T02:06:21.971Z,990.442
2023-01-30T02:07:21.609Z,990.067
2023-01-30T02:08:21.300Z,990.047
2023-01-30T02:09:21.255Z,990.107
2023-01-30T02:10:21.145Z,990.223
2023-01-30T02:11:21.135Z,990.134
2023-01-30T02:12:21.795Z,990.116
2023-01-30T02:13:21.675Z,990.120
2023-01-30T02:15:21.331Z,990.092
2023-01-30T02:16:21.391Z,990.093
2023-01-30T02:17:22.046Z,989.971
2023-01-30T02:18:21.877Z,989.892
2023-01-30T02:19:21.608Z,989.827
2023-01-30T02:20:21.289Z,989.796
2023-01-30T02:21:21.140Z,989.853
2023-01-30T02:22:21.798Z,989.873
2023-01-30T02:23:21.767Z,989.811
2023-01-30T02:24:21.559Z,989.793
2023-01-30T02:25:21.374Z,989.720
2023-01-30T02:26:21.423Z,989.710
2023-01-30T02:27:21.262Z,989.665
2023-01-30T02:28:21.971Z,989.662
2023-01-30T02:29:21.683Z,989.495
2023-01-30T02:30:21.908Z,989.663
2023-01-30T02:31:21.777Z,989.548
2023-01-30T02:32:21.889Z,989.773
2023-01-30T02:33:21.552Z,989.888
2023-01-30T02:34:21.286Z,989.885
2023-01-30T02:35:21.042Z,989.815
2023-01-30T02:36:21.803Z,989.973
2023-01-30T02:37:21.573Z,989.879
2023-01-30T02:38:21.280Z,989.920
2023-01-30T02:39:21.609Z,989.906
2023-01-30T02:40:21.599Z,989.792
2023-01-30T02:41:21.549Z,989.952
2023-01-30T02:42:21.595Z,989.742
2023-01-30T02:43:21.426Z,989.887
2023-01-30T02:44:21.083Z,989.697
2023-01-30T02:45:21.667Z,989.710
2023-01-30T02:46:21.635Z,989.876
2023-01-30T02:47:21.383Z,989.692
2023-01-30T02:48:21.120Z,989.709
2023-01-30T02:49:21.834Z,989.842
2023-01-30T02:50:21.571Z,989.863
2023-01-30T02:51:21.384Z,989.756
2023-01-30T02:52:21.056Z,989.882
2023-01-30T02:53:21.700Z,989.794
2023-01-30T02:54:21.519Z,989.664
2023-01-30T02:55:21.155Z,989.550
2023-01-30T02:56:21.740Z,989.402
2023-01-30T02:57:21.393Z,989.495
2023-01-30T02:58:21.183Z,989.635
2023-01-30T02:59:21.900Z,989.630
2023-01-30T03:00:21.551Z,989.456
2023-01-30T03:01:21.617Z,989.330
2023-01-30T03:02:21.508Z,989.396
2023-01-30T03:03:21.336Z,989.339
2023-01-30T03:04:21.473Z,989.464
2023-01-30T03:05:21.524Z,989.480
2023-01-30T03:06:21.456Z,989.454
2023-01-30T03:07:21.280Z,989.430
2023-01-30T03:08:21.287Z,989.390
2023-01-30T03:09:21.949Z,989.291
2023-01-30T03:10:21.363Z,989.243
2023-01-30T03:11:21.684Z,989.304
2023-01-30T03:12:21.960Z,989.278
2023-01-30T03:13:21.240Z,989.312
2023-01-30T03:14:21.244Z,989.262
2023-01-30T03:15:21.347Z,989.195
2023-01-30T03:16:21.331Z,989.202
2023-01-30T03:17:21.034Z,989.106
2023-01-30T03:18:21.599Z,989.053
2023-01-30T03:19:21.435Z,989.013
2023-01-30T03:20:21.182Z,989.064
2023-01-30T03:21:21.078Z,989.004
2023-01-30T03:22:24.063Z,989.046
2023-01-30T03:23:21.060Z,989.154
2023-01-30T03:24:21.782Z,989.049
2023-01-30T03:25:21.512Z,988.984
2023-01-30T03:26:21.316Z,988.981
2023-01-30T03:27:21.096Z,988.999
2023-01-30T03:28:21.797Z,988.925
2023-01-30T03:29:21.536Z,988.994
2023-01-30T03:30:21.292Z,988.980
2023-01-30T03:31:21.324Z,988.901
2023-01-30T03:32:21.569Z,989.009
2023-01-30T03:33:21.191Z,988.829
2023-01-30T03:34:21.053Z,988.944
2023-01-30T03:35:21.848Z,988.899
2023-01-30T03:36:21.596Z,988.909
2023-01-30T03:37:21.395Z,988.854
2023-01-30T03:38:21.205Z,988.974
2023-01-30T03:39:21.947Z,988.884
2023-01-30T03:40:21.703Z,988.882
2023-01-30T03:41:21.429Z,989.014
2023-01-30T03:42:21.155Z,988.966
2023-01-30T03:43:21.866Z,988.919
2023-01-30T03:44:21.549Z,988.924
2023-01-30T03:45:21.617Z,988.932
2023-01-30T03:46:21.350Z,988.850
2023-01-30T03:47:21.068Z,988.948
2023-01-30T03:48:21.797Z,988.781
2023-01-30T03:49:21.502Z,988.679
2023-01-30T03:50:21.243Z,988.767
2023-01-30T03:51:21.880Z,988.824
2023-01-30T03:52:21.671Z,988.822
2023-01-30T03:54:21.150Z,988.617
2023-01-30T03:55:21.885Z,988.720
2023-01-30T03:56:21.661Z,988.748
2023-01-30T03:57:21.293Z,988.790
2023-01-30T03:58:21.242Z,988.814
2023-01-30T03:59:21.837Z,988.823
2023-01-30T04:00:21.627Z,988.891
2023-01-30T04:01:21.974Z,988.937
2023-01-30T04:02:21.776Z,988.896
2023-01-30T04:03:21.614Z,988.828
2023-01-30T04:04:21.450Z,988.916
2023-01-30T04:05:21.220Z,988.810
2023-01-30T04:06:21.933Z,988.822
2023-01-30T04:07:21.559Z,988.757
2023-01-30T04:08:21.160Z,988.833
2023-01-30T04:09:21.802Z,988.823
2023-01-30T04:10:21.615Z,988.798
2023-01-30T04:11:21.167Z,988.911
2023-01-30T04:12:21.810Z,988.906
2023-01-30T04:13:21.423Z,988.838
2023-01-30T04:14:21.091Z,988.849
2023-01-30T04:15:21.028Z,988.902
2023-01-30T04:16:21.936Z,988.845
2023-01-30T04:17:22.395Z,988.975
2023-01-30T04:18:22.606Z,989.043
2023-01-30T04:19:22.919Z,988.851
2023-01-30T04:21:22.217Z,988.966
2023-01-30T04:22:22.294Z,988.987
2023-01-30T04:23:22.391Z,988.903
2023-01-30T04:25:22.256Z,988.945
2023-01-30T04:26:22.213Z,988.863
2023-01-30T04:27:22.536Z,988.911
2023-01-30T04:28:22.760Z,988.869
2023-01-30T04:29:22.404Z,988.907
2023-01-30T04:31:22.283Z,988.860
2023-01-30T04:32:22.549Z,988.893
2023-01-30T04:33:22.483Z,988.877
2023-01-30T04:34:22.609Z,988.832
2023-01-30T04:36:22.228Z,988.732
2023-01-30T04:37:22.653Z,988.752
2023-01-30T04:38:22.592Z,988.712
2023-01-30T04:39:22.823Z,988.740
2023-01-30T04:40:21.709Z,988.604
2023-01-30T04:41:22.568Z,988.584
2023-01-30T04:42:22.970Z,988.763
2023-01-30T04:43:22.654Z,988.621
2023-01-30T04:44:22.972Z,988.659
2023-01-30T04:46:23.096Z,988.688
2023-01-30T04:47:23.345Z,988.659
2023-01-30T04:48:23.351Z,988.531
2023-01-30T04:49:23.335Z,988.636
2023-01-30T04:50:23.759Z,988.588
2023-01-30T04:51:22.801Z,988.441
2023-01-30T04:53:23.053Z,988.461
2023-01-30T04:54:23.297Z,988.468
2023-01-30T04:55:23.340Z,988.241
2023-01-30T04:56:22.916Z,988.427
2023-01-30T04:57:22.946Z,988.362
2023-01-30T04:59:23.747Z,988.407
2023-01-30T05:01:23.009Z,988.382
2023-01-30T05:02:23.763Z,988.298
2023-01-30T05:04:22.318Z,988.563
2023-01-30T05:05:22.225Z,988.553
2023-01-30T05:06:22.368Z,988.599
2023-01-30T05:07:22.392Z,988.562
2023-01-30T05:10:22.859Z,988.338
2023-01-30T05:12:22.872Z,988.491
2023-01-30T05:13:21.949Z,988.372
2023-01-30T05:14:22.318Z,988.266
2023-01-30T05:15:22.483Z,988.515
2023-01-30T05:16:22.768Z,988.489
2023-01-30T05:18:22.926Z,988.155
2023-01-30T05:19:23.113Z,988.245
2023-01-30T05:20:23.454Z,988.240
2023-01-30T05:21:23.621Z,988.279
2023-01-30T05:23:22.877Z,988.287
2023-01-30T05:24:23.840Z,988.278
2023-01-30T05:26:24.481Z,988.283
2023-01-30T05:27:24.609Z,988.261
2023-01-30T05:28:24.618Z,988.334
2023-01-30T05:29:24.854Z,988.261
2023-01-30T05:30:24.424Z,988.264
2023-01-30T05:32:25.308Z,988.233
2023-01-30T05:33:25.351Z,988.359
2023-01-30T05:34:25.333Z,988.264
2023-01-30T05:35:25.610Z,988.195
2023-01-30T05:36:25.446Z,988.071
2023-01-30T05:37:25.345Z,988.156
2023-01-30T05:38:25.403Z,988.112
2023-01-30T05:39:25.665Z,988.180
2023-01-30T05:40:25.183Z,988.142
2023-01-30T05:41:25.359Z,988.167
2023-01-30T05:42:26.097Z,988.128
2023-01-30T05:43:25.467Z,988.191
2023-01-30T05:44:25.517Z,988.307
2023-01-30T05:45:25.239Z,988.326
2023-01-30T05:46:25.269Z,988.317
2023-01-30T05:47:25.644Z,988.325
2023-01-30T05:48:25.823Z,988.331
2023-01-30T05:49:25.372Z,988.265
2023-01-30T05:50:26.132Z,988.311
2023-01-30T05:51:24.850Z,988.088
2023-01-30T05:53:25.740Z,988.108
2023-01-30T05:54:25.694Z,988.055
2023-01-30T05:55:24.842Z,988.025
2023-01-30T05:56:24.797Z,988.147
2023-01-30T05:57:25.992Z,988.001
2023-01-30T05:59:25.278Z,988.124
2023-01-30T06:00:25.404Z,988.042
2023-01-30T06:01:25.493Z,988.111
2023-01-30T06:03:25.116Z,988.186
2023-01-30T06:04:25.735Z,988.097
2023-01-30T06:05:25.868Z,988.147
2023-01-30T06:07:25.170Z,988.305
2023-01-30T06:08:25.241Z,988.209
2023-01-30T06:09:25.584Z,988.147
2023-01-30T06:10:24.370Z,988.236
2023-01-30T06:11:25.385Z,988.170
2023-01-30T06:14:25.255Z,988.281
2023-01-30T06:15:24.912Z,988.316
2023-01-30T06:16:25.775Z,988.245
2023-01-30T06:17:25.042Z,988.318
2023-01-30T06:19:25.287Z,988.144
2023-01-30T06:20:25.851Z,988.090
2023-01-30T06:21:25.041Z,988.059
2023-01-30T06:22:25.168Z,988.161
2023-01-30T06:23:25.294Z,988.130
2023-01-30T06:24:25.555Z,988.087
2023-01-30T06:25:25.707Z,988.124
2023-01-30T06:27:26.717Z,988.200
2023-01-30T06:28:26.738Z,988.188
2023-01-30T06:29:26.637Z,988.062
2023-01-30T06:32:25.955Z,988.244
2023-01-30T06:33:26.578Z,988.284
2023-01-30T06:34:26.966Z,988.199
2023-01-30T06:35:25.932Z,988.313
2023-01-30T06:36:26.082Z,988.418
2023-01-30T06:37:26.067Z,988.328
2023-01-30T06:38:26.418Z,988.384
2023-01-30T06:40:26.396Z,988.346
2023-01-30T06:41:26.215Z,988.314
2023-01-30T06:42:26.015Z,988.366
2023-01-30T06:44:26.713Z,988.243
2023-01-30T06:46:25.756Z,988.165
2023-01-30T06:47:26.334Z,988.223
2023-01-30T06:48:26.807Z,988.232
2023-01-30T06:49:26.537Z,988.341
2023-01-30T06:50:26.780Z,988.352
2023-01-30T06:51:26.921Z,988.185
2023-01-30T06:52:26.026Z,988.016
2023-01-30T06:53:25.988Z,988.174
2023-01-30T06:54:26.037Z,988.253
2023-01-30T06:55:26.716Z,988.167
2023-01-30T06:56:26.907Z,988.070
2023-01-30T06:57:26.667Z,988.253
2023-01-30T06:58:26.769Z,988.080
2023-01-30T06:59:26.797Z,987.959
2023-01-30T07:00:26.098Z,988.218
2023-01-30T07:01:27.331Z,988.225
2023-01-30T07:03:26.311Z,988.377
2023-01-30T07:04:26.642Z,988.152
2023-01-30T07:05:26.835Z,988.245
2023-01-30T07:07:26.599Z,988.273
2023-01-30T07:08:26.517Z,988.051
2023-01-30T07:09:26.748Z,988.134
2023-01-30T07:11:34.752Z,988.061
2023-01-30T07:12:34.339Z,988.139
2023-01-30T07:13:34.418Z,988.059
2023-01-30T07:14:34.520Z,988.118
2023-01-30T07:15:33.884Z,988.167
2023-01-30T07:16:34.228Z,988.121
2023-01-30T07:18:34.671Z,988.047
2023-01-30T07:19:34.650Z,988.023
2023-01-30T07:20:34.474Z,987.906
2023-01-30T07:21:34.090Z,988.042
2023-01-30T07:23:34.095Z,987.995
2023-01-30T07:24:34.340Z,987.965
2023-01-30T07:25:34.019Z,987.886
2023-01-30T07:27:34.572Z,987.799
2023-01-30T07:28:34.472Z,987.646
2023-01-30T07:29:34.393Z,987.668
2023-01-30T07:31:33.913Z,987.762
2023-01-30T07:32:34.099Z,987.798
2023-01-30T07:33:34.659Z,987.807
2023-01-30T07:34:34.381Z,987.718
2023-01-30T07:35:34.540Z,987.779
2023-01-30T07:36:34.434Z,987.746
2023-01-30T07:37:34.469Z,987.744
2023-01-30T07:40:34.467Z,987.433
2023-01-30T07:41:34.592Z,987.652
2023-01-30T07:43:34.439Z,987.646
2023-01-30T07:44:34.837Z,987.598
2023-01-30T07:45:34.483Z,987.469
2023-01-30T07:46:34.563Z,987.469
2023-01-30T07:47:33.814Z,987.432
2023-01-30T07:50:35.243Z,987.521
2023-01-30T07:51:35.134Z,987.304
2023-01-30T07:52:35.116Z,987.336
2023-01-30T07:56:37.706Z,987.481
2023-01-30T07:57:38.154Z,987.286
2023-01-30T07:59:37.886Z,987.334
2023-01-30T08:01:36.971Z,987.261
2023-01-30T08:02:37.958Z,987.138
2023-01-30T08:03:36.592Z,987.187
2023-01-30T08:04:36.343Z,987.214
2023-01-30T08:05:36.160Z,987.235
2023-01-30T08:06:36.944Z,987.191
2023-01-30T08:07:36.528Z,987.115
2023-01-30T08:08:36.383Z,987.178
2023-01-30T08:09:36.380Z,987.099
2023-01-30T08:10:36.969Z,987.224
2023-01-30T08:11:36.603Z,987.124
2023-01-30T08:12:36.495Z,987.132
2023-01-30T08:13:36.204Z,987.314
2023-01-30T08:14:36.844Z,987.367
2023-01-30T08:15:36.570Z,987.204
2023-01-30T08:16:36.343Z,987.356
2023-01-30T08:17:36.060Z,987.334
2023-01-30T08:18:36.020Z,987.296
2023-01-30T08:19:36.831Z,987.244
2023-01-30T08:20:36.513Z,987.129
2023-01-30T08:21:36.729Z,987.235
2023-01-30T08:22:36.366Z,987.091
2023-01-30T08:23:36.069Z,987.265
2023-01-30T08:24:36.774Z,987.142
2023-01-30T08:25:36.495Z,987.130
2023-01-30T08:26:36.191Z,987.308
2023-01-30T08:27:36.854Z,987.037
2023-01-30T08:28:36.674Z,987.156
2023-01-30T08:29:36.355Z,987.090
2023-01-30T08:31:36.389Z,987.099
2023-01-30T08:32:36.139Z,987.098
2023-01-30T08:33:36.797Z,987.039
2023-01-30T08:34:36.621Z,987.052
2023-01-30T08:35:36.951Z,987.151
2023-01-30T08:36:36.647Z,987.055
2023-01-30T08:37:36.464Z,987.067
2023-01-30T08:38:36.136Z,987.077
2023-01-30T08:39:37.309Z,986.903
2023-01-30T08:40:36.155Z,986.812
2023-01-30T08:41:36.849Z,986.941
2023-01-30T08:42:36.559Z,987.087
2023-01-30T08:43:36.340Z,987.063
2023-01-30T08:44:35.995Z,987.086
2023-01-30T08:45:36.870Z,987.107
2023-01-30T08:46:36.773Z,986.992
2023-01-30T08:47:36.492Z,986.832
2023-01-30T08:48:47.580Z,986.983
2023-01-30T08:49:36.119Z,986.951
2023-01-30T08:50:36.815Z,986.992
2023-01-30T08:51:36.444Z,987.074
2023-01-30T08:52:36.076Z,986.998
2023-01-30T08:53:36.691Z,986.926
2023-01-30T08:54:36.383Z,986.865
2023-01-30T08:55:36.055Z,986.917
2023-01-30T08:56:36.903Z,986.833
2023-01-30T08:57:36.493Z,986.929
2023-01-30T08:58:36.643Z,986.582
2023-01-30T08:59:36.791Z,986.601
2023-01-30T09:00:36.623Z,986.985
2023-01-30T09:01:36.578Z,986.871
2023-01-30T09:02:36.487Z,986.918
2023-01-30T09:03:36.522Z,986.939
2023-01-30T09:04:36.156Z,986.938
2023-01-30T09:05:36.796Z,986.808
2023-01-30T09:06:36.458Z,986.816
2023-01-30T09:07:36.074Z,986.721
2023-01-30T09:08:36.746Z,986.752
2023-01-30T09:09:36.380Z,986.986
2023-01-30T09:10:36.191Z,986.780
2023-01-30T09:11:36.257Z,986.926
2023-01-30T09:12:36.464Z,986.906
2023-01-30T09:13:36.223Z,986.686
2023-01-30T09:14:36.504Z,986.714
2023-01-30T09:15:36.265Z,986.725
2023-01-30T09:16:36.922Z,986.703
2023-01-30T09:17:36.818Z,986.721
2023-01-30T09:19:36.050Z,986.780
2023-01-30T09:20:36.275Z,986.876
2023-01-30T09:21:36.330Z,986.667
2023-01-30T09:22:36.979Z,986.716
2023-01-30T09:24:36.444Z,986.826
2023-01-30T09:25:36.165Z,986.843
2023-01-30T09:26:36.793Z,986.852
2023-01-30T09:27:36.526Z,986.804
2023-01-30T09:29:36.793Z,986.687
2023-01-30T09:30:36.573Z,986.672
2023-01-30T09:31:36.636Z,986.610
2023-01-30T09:32:36.370Z,986.586
2023-01-30T09:33:36.063Z,986.458
2023-01-30T09:34:36.424Z,986.567
2023-01-30T09:35:37.056Z,986.673
2023-01-30T09:36:36.748Z,986.583
2023-01-30T09:37:36.413Z,986.670
2023-01-30T09:38:36.186Z,986.549
2023-01-30T09:39:37.002Z,986.634
2023-01-30T09:40:36.635Z,986.382
2023-01-30T09:41:36.348Z,986.708
2023-01-30T09:42:37.944Z,986.775
2023-01-30T09:43:36.748Z,986.813
2023-01-30T09:44:36.520Z,986.664
2023-01-30T09:45:36.494Z,986.608
2023-01-30T09:46:36.374Z,986.545
2023-01-30T09:47:36.100Z,986.739
2023-01-30T09:48:37.050Z,986.679
2023-01-30T09:49:36.583Z,986.731
2023-01-30T09:50:36.227Z,986.651
2023-01-30T09:51:36.715Z,986.740
2023-01-30T09:52:36.925Z,986.463
2023-01-30T09:53:36.634Z,986.689
2023-01-30T09:54:36.271Z,986.481
2023-01-30T09:55:36.332Z,986.326
2023-01-30T09:56:36.407Z,986.240
2023-01-30T09:57:36.484Z,986.544
2023-01-30T09:58:36.071Z,986.614
2023-01-30T09:59:36.704Z,986.354
2023-01-30T10:00:36.500Z,986.445
2023-01-30T10:01:36.192Z,986.510
2023-01-30T10:02:36.958Z,986.526
2023-01-30T10:03:36.710Z,986.683
2023-01-30T10:04:36.563Z,986.605
2023-01-30T10:05:36.789Z,986.508
2023-01-30T10:06:36.526Z,986.254
2023-01-30T10:07:36.445Z,986.440
2023-01-30T10:08:36.486Z,986.427
2023-01-30T10:09:36.284Z,986.412
2023-01-30T10:10:37.028Z,985.992
2023-01-30T10:12:36.665Z,986.452
2023-01-30T10:13:36.264Z,986.526
2023-01-30T10:14:36.976Z,986.719
2023-01-30T10:15:36.673Z,986.224
2023-01-30T10:16:36.680Z,986.604
2023-01-30T10:18:36.340Z,986.594
2023-01-30T10:19:36.812Z,986.577
2023-01-30T10:20:36.579Z,986.464
2023-01-30T10:21:36.780Z,986.676
2023-01-30T10:22:36.471Z,986.643
2023-01-30T10:23:36.102Z,986.429
2023-01-30T10:24:36.897Z,986.644
2023-01-30T10:25:36.145Z,986.564
2023-01-30T10:26:37.044Z,986.601
2023-01-30T10:27:36.792Z,986.521
2023-01-30T10:28:36.609Z,986.727
2023-01-30T10:30:36.067Z,986.514
2023-01-30T10:31:36.528Z,986.352
2023-01-30T10:32:36.918Z,986.601
2023-01-30T10:33:36.662Z,986.637
2023-01-30T10:34:36.354Z,986.606
2023-01-30T10:35:36.092Z,986.563
2023-01-30T10:36:36.238Z,986.264
2023-01-30T10:37:36.952Z,986.503
2023-01-30T10:38:36.640Z,986.546
2023-01-30T10:39:38.713Z,986.500
2023-01-30T10:40:36.439Z,986.627
2023-01-30T10:41:36.363Z,986.514
2023-01-30T10:42:37.557Z,986.703
2023-01-30T10:43:36.479Z,986.367
2023-01-30T10:44:36.287Z,986.518
2023-01-30T10:45:36.971Z,986.407
2023-01-30T10:46:36.977Z,986.450
2023-01-30T10:47:46.489Z,986.531
2023-01-30T10:48:42.769Z,986.668
2023-01-30T10:49:36.252Z,986.516
2023-01-30T10:50:36.040Z,986.642
2023-01-30T10:51:36.801Z,986.749
2023-01-30T10:52:36.555Z,986.628
2023-01-30T10:53:36.432Z,986.518
2023-01-30T10:54:36.504Z,986.242
2023-01-30T10:55:37.851Z,986.577
2023-01-30T10:56:36.989Z,986.658
2023-01-30T10:58:36.525Z,986.582
2023-01-30T10:59:36.276Z,986.523
2023-01-30T11:00:36.017Z,986.547
2023-01-30T11:01:36.732Z,986.583
2023-01-30T11:02:36.552Z,986.208
2023-01-30T11:03:36.519Z,986.448
2023-01-30T11:04:36.431Z,986.197
2023-01-30T11:06:36.819Z,985.953
2023-01-30T11:07:36.624Z,986.355
2023-01-30T11:08:36.243Z,986.491
2023-01-30T11:09:36.899Z,986.354
2023-01-30T11:10:36.711Z,986.156
2023-01-30T11:11:36.426Z,986.406
2023-01-30T11:12:36.246Z,986.384
2023-01-30T11:13:36.341Z,986.446
2023-01-30T11:14:36.483Z,986.208
2023-01-30T11:15:36.535Z,986.438
2023-01-30T11:16:36.268Z,986.425
2023-01-30T11:17:35.999Z,986.322
2023-01-30T11:19:48.675Z,986.427
2023-01-30T11:20:48.524Z,986.118
2023-01-30T11:22:50.682Z,986.256
2023-01-30T11:23:50.424Z,986.129
2023-01-30T11:24:50.168Z,986.009
2023-01-30T11:25:56.659Z,986.193
2023-01-30T11:28:00.240Z,985.942
2023-01-30T11:29:00.892Z,985.782
2023-01-30T11:30:00.680Z,986.087
2023-01-30T11:31:00.441Z,986.191
2023-01-30T11:33:00.411Z,986.153
2023-01-30T11:34:00.093Z,985.872
2023-01-30T11:35:00.931Z,986.137
2023-01-30T11:36:00.603Z,986.072
2023-01-30T11:37:00.229Z,986.048
2023-01-30T11:38:00.836Z,986.190
2023-01-30T11:39:00.616Z,986.000
2023-01-30T11:40:00.422Z,986.269
2023-01-30T11:41:00.267Z,986.050
2023-01-30T11:42:00.097Z,986.130
2023-01-30T11:43:00.974Z,985.974
2023-01-30T11:44:00.664Z,986.190
2023-01-30T11:45:15.875Z,986.046
2023-01-30T11:46:00.457Z,985.946
2023-01-30T11:47:00.121Z,986.117
2023-01-30T11:49:02.626Z,986.169
2023-01-30T11:51:19.652Z,985.881
2023-01-30T11:52:19.646Z,986.056
2023-01-30T11:53:19.688Z,986.106
2023-01-30T11:54:19.412Z,985.999
2023-01-30T11:55:19.864Z,986.031
2023-01-30T11:57:23.069Z,986.211
2023-01-30T11:58:23.137Z,986.064
2023-01-30T11:59:22.231Z,985.883
2023-01-30T12:00:22.833Z,986.286
2023-01-30T12:01:22.651Z,985.914
2023-01-30T12:02:22.556Z,986.260
2023-01-30T12:03:23.415Z,986.209
2023-01-30T12:04:22.684Z,986.195
2023-01-30T12:05:22.760Z,985.989
2023-01-30T12:06:22.854Z,985.856
2023-01-30T12:07:22.947Z,986.237
2023-01-30T12:08:35.404Z,985.781
2023-01-30T12:09:23.156Z,986.023
2023-01-30T12:10:22.672Z,985.917
2023-01-30T12:11:22.411Z,986.019
2023-01-30T12:12:22.387Z,986.138
2023-01-30T12:13:22.462Z,986.043
2023-01-30T12:14:22.587Z,985.979
2023-01-30T12:15:22.687Z,986.106
2023-01-30T12:16:22.820Z,986.009
2023-01-30T12:17:22.902Z,985.967
2023-01-30T12:18:23.000Z,986.142
2023-01-30T12:19:23.053Z,986.089
2023-01-30T12:20:23.144Z,985.933
2023-01-30T12:21:22.865Z,985.893
2023-01-30T12:23:22.424Z,986.052
2023-01-30T12:24:22.505Z,985.552
2023-01-30T12:25:22.592Z,985.942
2023-01-30T12:26:22.694Z,985.850
2023-01-30T12:27:22.761Z,985.823
2023-01-30T12:28:22.983Z,985.939
2023-01-30T12:29:22.951Z,986.183
2023-01-30T12:30:23.060Z,986.199
2023-01-30T12:31:23.136Z,986.151
2023-01-30T12:32:22.874Z,986.026
2023-01-30T12:33:22.574Z,986.107
2023-01-30T12:34:24.271Z,986.224
2023-01-30T12:35:22.839Z,986.121
2023-01-30T12:36:22.515Z,986.060
2023-01-30T12:37:22.649Z,986.089
2023-01-30T12:38:22.747Z,986.005
2023-01-30T12:39:22.807Z,986.062
2023-01-30T12:40:22.902Z,985.895
2023-01-30T12:41:22.994Z,985.779
2023-01-30T12:42:24.016Z,985.968
2023-01-30T12:43:23.159Z,985.891
2023-01-30T12:44:22.855Z,985.780
2023-01-30T12:45:22.556Z,985.926
2023-01-30T12:46:22.463Z,985.909
2023-01-30T12:47:22.548Z,985.928
2023-01-30T12:48:22.595Z,985.860
2023-01-30T12:50:27.198Z,985.982
2023-01-30T12:51:26.031Z,985.672
2023-01-30T12:52:26.713Z,985.930
2023-01-30T12:53:26.343Z,986.014
2023-01-30T12:54:26.953Z,985.930
2023-01-30T12:55:26.657Z,985.584
2023-01-30T12:56:26.387Z,985.972
2023-01-30T12:57:26.771Z,985.992
2023-01-30T12:58:26.491Z,985.892
2023-01-30T12:59:26.192Z,986.029
2023-01-30T13:00:27.012Z,985.967
2023-01-30T13:01:26.825Z,985.896
2023-01-30T13:02:27.011Z,986.097
2023-01-30T13:03:26.167Z,985.810
2023-01-30T13:04:26.939Z,985.891
2023-01-30T13:06:26.493Z,985.836
2023-01-30T13:07:26.202Z,985.650
2023-01-30T13:08:26.894Z,985.994
2023-01-30T13:09:26.859Z,986.104
2023-01-30T13:10:26.586Z,986.108
2023-01-30T13:11:26.255Z,986.125
2023-01-30T13:12:26.936Z,986.037
2023-01-30T13:13:26.623Z,985.875
2023-01-30T13:14:26.255Z,985.724
2023-01-30T13:15:26.940Z,985.840
2023-01-30T13:16:26.109Z,985.757